»·PEaware :: DAL282 KSAN-KSFO

DAL282 :: KSAN-KSFO

FLIGHT INFORMATION

Flight Status: Arrived
Operator:
Delta Air Lines
More flights by this operator :: More flights under this callsign
Pilot: Mark N. (18348)
Aircraft: BOEING 737-800
(B738)
More flights by this aircraft type
Origin: KSAN San Diego Intl-Lindbergh
United States
Destination: KSFO San Francisco Intl
United States
More flights between these airports :: More routes between these airports
Route: PADRZ2 IKAYE RIZIN SPLNT STOKD SERFR SERFR3
File this flight plan on PilotEdge
Remarks:
Altitude:
(Current/Filed)
34,000ft
Speed:
(Current/Filed)
300kts
Departed: 08-Jun-18 01:02 PM
Arrived: 08-Jun-18 02:06 PM
Distance/Time
Traveled:
388nm/1:04
Distance/Time
To Go:
Arrived

Flight Plot

Page will automatically refresh every two minutes.

Flight plan parsing failed; only flown route is shown


Map Options




Map Legend


Flown Route
Filed Route
Departure Airport
Arrival Airport
Navaid (VOR, NDB)
Fix

Horizontal Profiles

Position Reports

Time Latitude Longitude Heading Altitude Ground
Speed
08-Jun-18 12:25 32.732280 -117.202350 191 22ft 0kts
08-Jun-18 12:26 32.732280 -117.202350 191 22ft 0kts
08-Jun-18 12:27 32.732280 -117.202350 191 22ft 0kts
08-Jun-18 12:28 32.732280 -117.202350 191 22ft 0kts
08-Jun-18 12:29 32.732280 -117.202350 191 22ft 0kts
08-Jun-18 12:30 32.732280 -117.202350 191 22ft 0kts
08-Jun-18 12:31 32.732280 -117.202350 191 22ft 0kts
08-Jun-18 12:32 32.732280 -117.202350 191 22ft 0kts
08-Jun-18 12:33 32.732280 -117.202350 191 22ft 0kts
08-Jun-18 12:34 32.732280 -117.202350 191 22ft 0kts
08-Jun-18 12:35 32.732280 -117.202350 191 22ft 0kts
08-Jun-18 12:36 32.732280 -117.202350 191 22ft 0kts
08-Jun-18 12:37 32.732280 -117.202350 191 22ft 0kts
08-Jun-18 12:38 32.732280 -117.202350 191 22ft 0kts
08-Jun-18 12:39 32.732280 -117.202350 191 22ft 0kts
08-Jun-18 12:40 32.732280 -117.202350 191 22ft 0kts
08-Jun-18 12:41 32.732280 -117.202350 191 22ft 0kts
08-Jun-18 12:42 32.732280 -117.202350 191 22ft 0kts
08-Jun-18 12:43 32.732280 -117.202350 191 22ft 0kts
08-Jun-18 12:44 32.732280 -117.202350 191 22ft 0kts
08-Jun-18 12:45 32.732280 -117.202350 191 22ft 0kts
08-Jun-18 12:46 32.732280 -117.202350 191 22ft 0kts
08-Jun-18 12:47 32.732280 -117.202350 191 22ft 0kts
08-Jun-18 12:48 32.732921 -117.202210 177 22ft 2kts
08-Jun-18 12:49 32.733222 -117.202322 146 22ft 0kts
08-Jun-18 12:50 32.733221 -117.202322 146 22ft 0kts
08-Jun-18 12:51 32.734333 -117.202320 8 22ft 11kts
08-Jun-18 12:52 32.734203 -117.196559 105 22ft 22kts
08-Jun-18 12:53 32.732417 -117.189073 104 23ft 24kts
08-Jun-18 12:54 32.730512 -117.181326 105 23ft 25kts
08-Jun-18 12:55 32.729492 -117.176888 73 22ft 0kts
08-Jun-18 12:56 32.729493 -117.176884 73 22ft 0kts
08-Jun-18 12:57 32.729494 -117.176881 73 22ft 0kts
08-Jun-18 12:58 32.729495 -117.176877 73 22ft 0kts
08-Jun-18 12:59 32.729496 -117.176874 73 22ft 0kts
08-Jun-18 13:00 32.729497 -117.176870 73 22ft 0kts
08-Jun-18 13:01 32.729522 -117.176771 73 22ft 3kts
08-Jun-18 13:02 32.731352 -117.180659 285 23ft 74kts
08-Jun-18 13:03 32.744447 -117.232741 293 2178ft 185kts
08-Jun-18 13:04 32.779756 -117.288794 308 4184ft 247kts
08-Jun-18 13:05 32.822966 -117.354434 307 7313ft 258kts
08-Jun-18 13:06 32.870277 -117.427829 307 9776ft 293kts
08-Jun-18 13:07 32.922830 -117.509598 305 11677ft 343kts
08-Jun-18 13:08 32.986237 -117.608299 305 12704ft 397kts
08-Jun-18 13:09 33.054197 -117.714042 308 15014ft 407kts
08-Jun-18 13:10 33.139090 -117.806239 318 17043ft 419kts
08-Jun-18 13:11 33.227579 -117.899821 313 18895ft 429kts
08-Jun-18 13:12 33.312210 -118.002352 313 20524ft 439kts
08-Jun-18 13:13 33.398723 -118.106661 313 22012ft 446kts
08-Jun-18 13:14 33.487547 -118.213227 313 23281ft 455kts
08-Jun-18 13:15 33.573785 -118.316871 313 24354ft 462kts
08-Jun-18 13:16 33.665105 -118.427092 313 25364ft 469kts
08-Jun-18 13:17 33.751936 -118.532256 313 26247ft 476kts
08-Jun-18 13:18 33.845412 -118.645834 313 27300ft 478kts
08-Jun-18 13:19 33.938818 -118.759531 313 28668ft 474kts
08-Jun-18 13:20 34.030965 -118.872203 313 30104ft 469kts
08-Jun-18 13:21 34.118216 -118.979521 312 31397ft 467kts
08-Jun-18 13:22 34.191691 -119.104520 300 32679ft 463kts
08-Jun-18 13:23 34.259412 -119.236073 300 33889ft 461kts
08-Jun-18 13:24 34.327221 -119.368297 300 34005ft 461kts
08-Jun-18 13:25 34.394554 -119.500366 301 34010ft 461kts
08-Jun-18 13:26 34.476905 -119.614358 313 34004ft 463kts
08-Jun-18 13:27 34.567232 -119.725362 312 34000ft 463kts
08-Jun-18 13:28 34.656232 -119.835350 312 34003ft 462kts
08-Jun-18 13:29 34.746407 -119.946591 312 34017ft 462kts
08-Jun-18 13:30 34.832366 -120.053304 312 34024ft 460kts
08-Jun-18 13:31 34.921884 -120.164586 312 34044ft 460kts
08-Jun-18 13:32 35.009373 -120.274172 311 34051ft 459kts
08-Jun-18 13:33 35.098747 -120.386024 313 34050ft 459kts
08-Jun-18 13:34 35.193047 -120.491284 315 34046ft 459kts
08-Jun-18 13:35 35.287309 -120.596628 314 34040ft 459kts
08-Jun-18 13:36 35.379095 -120.700130 314 34043ft 459kts
08-Jun-18 13:37 35.471649 -120.805072 314 34051ft 458kts
08-Jun-18 13:38 35.570866 -120.900140 320 34056ft 460kts
08-Jun-18 13:39 35.673380 -120.995014 319 34059ft 460kts
08-Jun-18 13:40 35.775312 -121.089961 319 34067ft 460kts
08-Jun-18 13:41 35.877615 -121.185178 319 34074ft 459kts
08-Jun-18 13:42 35.978882 -121.280322 319 32054ft 458kts
08-Jun-18 13:43 36.080656 -121.375257 321 28901ft 462kts
08-Jun-18 13:44 36.190255 -121.460385 324 25486ft 465kts
08-Jun-18 13:45 36.297323 -121.543389 324 22840ft 445kts
08-Jun-18 13:46 36.397682 -121.622176 324 21429ft 402kts
08-Jun-18 13:47 36.487369 -121.692880 323 20632ft 361kts
08-Jun-18 13:48 36.571992 -121.759556 324 18993ft 365kts
08-Jun-18 13:49 36.656353 -121.826472 324 17371ft 355kts
08-Jun-18 13:50 36.740162 -121.890011 333 15591ft 353kts
08-Jun-18 13:51 36.834663 -121.920579 345 13921ft 349kts
08-Jun-18 13:52 36.928661 -121.946471 344 12317ft 341kts
08-Jun-18 13:53 37.015441 -121.976889 339 11780ft 303kts
08-Jun-18 13:54 37.091848 -122.007318 339 11139ft 280kts
08-Jun-18 13:55 37.165672 -122.036417 340 10062ft 274kts
08-Jun-18 13:56 37.236359 -122.064183 340 9412ft 251kts
08-Jun-18 13:57 37.300532 -122.089405 340 8716ft 229kts
08-Jun-18 13:58 37.360094 -122.112889 341 7426ft 217kts
08-Jun-18 13:59 37.414796 -122.132413 343 6180ft 201kts
08-Jun-18 14:00 37.463046 -122.148612 342 5053ft 174kts
08-Jun-18 14:01 37.509553 -122.164883 342 3498ft 173kts
08-Jun-18 14:02 37.545484 -122.198394 298 2620ft 161kts
08-Jun-18 14:03 37.564884 -122.246458 295 1926ft 152kts
08-Jun-18 14:04 37.584410 -122.293263 295 1188ft 145kts
08-Jun-18 14:05 37.601524 -122.334021 295 480ft 125kts
08-Jun-18 14:06 37.616265 -122.369506 294 21ft 34kts
08-Jun-18 14:07 37.616543 -122.372302 202 21ft 18kts
08-Jun-18 14:08 37.616541 -122.376753 275 21ft 1kts
08-Jun-18 14:09 37.617044 -122.379498 275 21ft 5kts
08-Jun-18 14:10 37.617112 -122.380331 274 21ft 1kts
08-Jun-18 14:11 37.617113 -122.380340 274 21ft 0kts
08-Jun-18 14:12 37.617113 -122.380340 274 21ft 0kts
08-Jun-18 14:13 37.617113 -122.380340 274 21ft 0kts

Navigation Log

Ident Type
Flight plan parsing failed, navigation log unavailable